Time;durP1;ratioP1;P1;durP2;ratioP2;P2;SDS_P1;SDS_P2;PMS_P1;PMS_P2;Temp;Humidity;BMP_temperature;BMP_pressure;BME280_temperature;BME280_humidity;BME280_pressure;Samples;Min_cycle;Max_cycle;Signal;HPM_P1;HPM_P2
2024/01/10 00:01:44;;;;;;;5.47;3.15;;;-1.50;99.90;;;;;;5024176;28;20498;-80
2024/01/10 00:04:10;;;;;;;4.65;2.13;;;-1.40;99.90;;;;;;5017182;28;20017;-79
2024/01/10 00:06:36;;;;;;;6.30;2.80;;;-1.40;99.90;;;;;;5017683;28;20025;-79
2024/01/10 00:09:02;;;;;;;5.03;2.20;;;-1.40;99.90;;;;;;5033760;28;20022;-80
2024/01/10 00:11:28;;;;;;;6.05;2.47;;;-1.30;99.90;;;;;;5034819;28;20029;-80
2024/01/10 00:13:59;;;;;;;5.53;3.17;;;-1.30;99.90;;;;;;5035208;28;20030;-81
2024/01/10 00:16:26;;;;;;;3.40;2.72;;;-1.30;99.90;;;;;;5032441;28;20057;-80
2024/01/10 00:18:52;;;;;;;3.38;1.90;;;-1.30;99.90;;;;;;5039395;28;20033;-80
2024/01/10 00:21:18;;;;;;;3.80;2.30;;;-1.20;99.90;;;;;;5043742;28;20080;-80
2024/01/10 00:23:44;;;;;;;6.50;3.58;;;-1.20;99.90;;;;;;5037259;28;20452;-79
2024/01/10 00:26:10;;;;;;;4.78;2.53;;;-1.20;99.90;;;;;;5034573;28;20032;-79
2024/01/10 00:28:35;;;;;;;3.47;2.15;;;-1.20;99.90;;;;;;5034724;28;20033;-79
2024/01/10 00:31:01;;;;;;;3.47;2.55;;;-1.10;99.90;;;;;;5034915;28;20025;-80
2024/01/10 00:33:27;;;;;;;4.00;2.47;;;-1.10;99.90;;;;;;5035326;28;20093;-80
2024/01/10 00:35:53;;;;;;;3.67;2.03;;;-1.10;99.90;;;;;;5032923;28;20048;-80
2024/01/10 00:38:19;;;;;;;2.30;1.98;;;-1.10;99.90;;;;;;5034403;28;20423;-80
2024/01/10 00:40:45;;;;;;;3.35;2.60;;;-1.00;99.90;;;;;;5028148;28;20022;-81
2024/01/10 00:43:10;;;;;;;4.10;2.05;;;-1.00;99.90;;;;;;5034070;28;20391;-80
2024/01/10 00:45:36;;;;;;;3.28;2.35;;;-1.00;99.90;;;;;;5034640;28;20076;-80
2024/01/10 00:48:02;;;;;;;2.63;1.65;;;-1.00;99.90;;;;;;5043499;28;20490;-79
2024/01/10 00:50:28;;;;;;;2.40;1.80;;;-0.90;99.90;;;;;;5014880;28;20560;-78
2024/01/10 00:52:54;;;;;;;2.60;2.03;;;-0.90;99.90;;;;;;5033348;28;20033;-79
2024/01/10 00:55:20;;;;;;;2.20;1.80;;;-0.90;99.90;;;;;;5034158;28;20026;-79
2024/01/10 00:57:46;;;;;;;2.03;1.85;;;-0.80;99.90;;;;;;5033260;28;20053;-78
2024/01/10 01:00:12;;;;;;;8.18;1.75;;;-0.80;99.90;;;;;;5010072;28;20033;-78
2024/01/10 01:02:39;;;;;;;1.70;1.53;;;-0.80;99.90;;;;;;5036340;28;20025;-79
2024/01/10 01:05:09;;;;;;;2.78;1.52;;;-0.80;99.90;;;;;;5037121;28;20029;-79
2024/01/10 01:07:35;;;;;;;1.20;1.00;;;-0.80;99.90;;;;;;5016636;28;20561;-79
2024/01/10 01:10:02;;;;;;;1.87;1.20;;;-0.70;99.90;;;;;;5034013;28;20039;-79
2024/01/10 01:12:28;;;;;;;3.30;1.42;;;-0.70;99.90;;;;;;5015828;28;20021;-81
2024/01/10 01:14:54;;;;;;;2.38;0.95;;;-0.70;99.90;;;;;;5015722;28;20040;-81
2024/01/10 01:17:20;;;;;;;1.67;1.15;;;-0.60;99.90;;;;;;5033198;28;20030;-79
2024/01/10 01:19:46;;;;;;;2.10;1.38;;;-0.60;99.90;;;;;;5033537;28;20536;-80
2024/01/10 01:22:12;;;;;;;1.20;1.00;;;-0.60;99.90;;;;;;5014006;28;20045;-80
2024/01/10 01:24:38;;;;;;;1.63;1.20;;;-0.60;99.90;;;;;;5033109;28;20021;-81
2024/01/10 01:27:04;;;;;;;1.20;1.10;;;-0.50;99.90;;;;;;5030866;28;20080;-79
2024/01/10 01:29:30;;;;;;;1.42;1.13;;;-0.50;99.90;;;;;;5033542;28;20018;-80
2024/01/10 01:31:56;;;;;;;1.63;1.45;;;-0.50;99.90;;;;;;5034896;28;20037;-82
2024/01/10 01:34:22;;;;;;;1.10;0.85;;;-0.50;99.90;;;;;;5018317;28;20033;-81
2024/01/10 01:36:48;;;;;;;2.80;1.33;;;-0.40;99.90;;;;;;5015512;28;20028;-80
2024/01/10 01:39:14;;;;;;;3.00;1.90;;;-0.40;99.90;;;;;;5034974;28;20030;-80
2024/01/10 01:41:40;;;;;;;1.98;1.60;;;-0.40;99.90;;;;;;5015181;28;20037;-81
2024/01/10 01:44:06;;;;;;;1.83;1.23;;;-0.40;99.90;;;;;;5033915;28;20025;-80
2024/01/10 01:46:33;;;;;;;1.08;1.00;;;-0.40;99.90;;;;;;5015152;28;20088;-80
2024/01/10 01:48:59;;;;;;;1.87;1.00;;;-0.40;99.90;;;;;;5033606;28;20483;-80
2024/01/10 01:51:28;;;;;;;1.88;1.30;;;-0.40;99.90;;;;;;5032089;28;20041;-81
2024/01/10 01:53:55;;;;;;;5.35;1.35;;;-0.40;99.90;;;;;;5033156;28;20021;-78
2024/01/10 01:56:21;;;;;;;2.23;0.70;;;-0.40;99.90;;;;;;5033128;28;20021;-79
2024/01/10 01:58:52;;;;;;;1.58;0.68;;;-0.40;99.90;;;;;;5042057;28;20036;-79
2024/01/10 02:01:22;;;;;;;1.02;0.60;;;-0.40;99.90;;;;;;5015023;28;20022;-80
2024/01/10 02:03:48;;;;;;;1.98;0.85;;;-0.40;99.90;;;;;;5033070;28;20482;-79
2024/01/10 02:06:14;;;;;;;1.98;1.25;;;-0.40;99.90;;;;;;5034558;28;20022;-80
2024/01/10 02:08:40;;;;;;;0.98;0.80;;;-0.40;99.90;;;;;;5036696;28;20031;-79
2024/01/10 02:11:06;;;;;;;0.95;0.60;;;-0.40;99.90;;;;;;5029666;28;20028;-79
2024/01/10 02:13:33;;;;;;;1.20;0.60;;;-0.40;99.90;;;;;;5032608;28;20037;-80
2024/01/10 02:15:59;;;;;;;2.10;0.73;;;-0.50;99.90;;;;;;5015086;28;20013;-79
2024/01/10 02:18:25;;;;;;;1.15;0.52;;;-0.60;99.90;;;;;;5032555;28;20021;-79
2024/01/10 02:20:52;;;;;;;0.90;0.70;;;-0.60;99.90;;;;;;5031345;28;20029;-80
2024/01/10 02:23:18;;;;;;;0.80;0.40;;;-0.70;99.90;;;;;;5032308;28;20017;-79
2024/01/10 02:25:44;;;;;;;1.27;0.75;;;-0.70;99.90;;;;;;5032851;28;20652;-79
2024/01/10 02:28:11;;;;;;;0.73;0.52;;;-0.80;99.90;;;;;;5020022;28;20014;-81
2024/01/10 02:30:37;;;;;;;1.52;0.55;;;-0.80;99.90;;;;;;5032505;28;20017;-80
2024/01/10 02:33:04;;;;;;;1.50;1.20;;;-0.90;99.90;;;;;;5032499;28;20025;-79
2024/01/10 02:35:32;;;;;;;1.13;0.55;;;-0.90;99.90;;;;;;5032521;28;20266;-80
2024/01/10 02:37:58;;;;;;;0.52;0.40;;;-1.00;99.90;;;;;;5014519;28;20018;-79
2024/01/10 02:40:24;;;;;;;0.63;0.60;;;-1.10;99.90;;;;;;5030996;28;20056;-78
2024/01/10 02:42:51;;;;;;;0.30;0.30;;;-1.10;99.90;;;;;;5032261;28;20021;-80
2024/01/10 02:45:17;;;;;;;0.82;0.50;;;-1.20;99.90;;;;;;5032307;28;20029;-80
2024/01/10 02:47:44;;;;;;;0.88;0.50;;;-1.30;99.90;;;;;;5032159;28;20162;-80
2024/01/10 02:50:10;;;;;;;0.88;0.68;;;-1.30;99.90;;;;;;5011968;28;20017;-80
2024/01/10 02:52:36;;;;;;;0.50;0.40;;;-1.40;99.90;;;;;;5027336;28;20386;-80
2024/01/10 02:55:02;;;;;;;2.50;0.60;;;-1.50;99.90;;;;;;5031245;28;20036;-79
2024/01/10 02:57:28;;;;;;;1.63;0.93;;;-1.50;99.90;;;;;;5033009;28;20027;-80
2024/01/10 02:59:54;;;;;;;5.28;0.60;;;-1.60;99.90;;;;;;5039765;28;20032;-79
2024/01/10 03:02:19;;;;;;;0.93;0.50;;;-1.60;99.90;;;;;;5032920;28;20036;-80
2024/01/10 03:04:45;;;;;;;0.70;0.50;;;-1.70;99.80;;;;;;5035983;28;20101;-80
2024/01/10 03:07:11;;;;;;;0.88;0.77;;;-1.80;99.90;;;;;;5032892;28;20482;-79
2024/01/10 03:09:37;;;;;;;0.85;0.55;;;-1.90;99.60;;;;;;5032014;28;20029;-80
2024/01/10 03:12:03;;;;;;;1.42;0.77;;;-1.90;98.80;;;;;;5031932;28;20022;-81
2024/01/10 03:14:29;;;;;;;1.63;0.80;;;-2.10;97.90;;;;;;5031740;28;20059;-79
2024/01/10 03:16:55;;;;;;;1.02;0.90;;;-2.20;98.40;;;;;;5014040;28;20112;-81
2024/01/10 03:19:21;;;;;;;1.88;1.17;;;-2.30;98.80;;;;;;5013827;28;20025;-80
2024/01/10 03:21:46;;;;;;;1.60;1.20;;;-2.30;99.20;;;;;;5006065;28;20473;-79
2024/01/10 03:24:14;;;;;;;1.35;1.20;;;-2.30;99.30;;;;;;5009945;28;20506;-80
2024/01/10 03:26:40;;;;;;;1.23;1.10;;;-2.30;99.30;;;;;;5012719;28;20025;-81
2024/01/10 03:29:06;;;;;;;1.30;1.20;;;-2.40;99.60;;;;;;5027215;28;20029;-81
2024/01/10 03:31:32;;;;;;;1.52;1.00;;;-2.40;98.50;;;;;;5014381;28;20478;-80
2024/01/10 03:33:58;;;;;;;1.50;1.20;;;-2.50;98.30;;;;;;5013855;28;20467;-78
2024/01/10 03:36:24;;;;;;;2.17;1.85;;;-2.60;98.50;;;;;;5032309;28;20036;-80
2024/01/10 03:38:51;;;;;;;4.10;2.28;;;-2.60;98.10;;;;;;5030598;28;20021;-80
2024/01/10 03:41:20;;;;;;;1.40;1.30;;;-2.70;98.20;;;;;;5027509;28;20569;-81
2024/01/10 03:43:47;;;;;;;4.25;2.00;;;-2.70;98.40;;;;;;5031990;28;20026;-80
2024/01/10 03:46:13;;;;;;;3.25;1.75;;;-2.80;98.50;;;;;;5036010;28;20376;-79
2024/01/10 03:48:49;;;;;;;5.35;3.03;;;-2.80;98.60;;;;;;5032325;28;20427;-81
2024/01/10 03:51:16;;;;;;;12.30;4.57;;;-2.90;98.80;;;;;;5033121;28;20426;-81
2024/01/10 03:53:42;;;;;;;6.80;5.20;;;-2.90;98.40;;;;;;5032275;28;20037;-82
2024/01/10 03:56:08;;;;;;;8.70;5.85;;;-3.00;96.90;;;;;;5033196;28;20394;-79
2024/01/10 03:58:34;;;;;;;10.45;6.50;;;-3.20;96.80;;;;;;5029569;28;20030;-81
2024/01/10 04:01:03;;;;;;;8.45;5.07;;;-3.40;96.40;;;;;;5031700;28;20036;-82
2024/01/10 04:03:29;;;;;;;9.23;5.55;;;-3.70;96.50;;;;;;5031492;28;20037;-82
2024/01/10 04:05:55;;;;;;;11.07;6.68;;;-3.80;96.80;;;;;;5025415;28;20102;-81
2024/01/10 04:08:21;;;;;;;12.32;6.32;;;-3.90;96.90;;;;;;5031514;28;20538;-83
2024/01/10 04:10:47;;;;;;;11.30;6.78;;;-4.00;96.80;;;;;;5027813;28;20031;-82
2024/01/10 04:13:12;;;;;;;13.27;7.38;;;-4.10;96.40;;;;;;5035212;28;20057;-79
2024/01/10 04:15:38;;;;;;;13.38;8.85;;;-4.30;96.00;;;;;;5035036;28;20021;-79
2024/01/10 04:18:04;;;;;;;12.63;6.47;;;-4.40;95.70;;;;;;5035194;28;21402;-80
2024/01/10 04:20:30;;;;;;;9.90;4.93;;;-4.50;95.70;;;;;;5033767;28;20106;-80
2024/01/10 04:22:56;;;;;;;12.27;8.32;;;-4.60;96.00;;;;;;5033560;28;20904;-79
2024/01/10 04:25:22;;;;;;;13.02;8.80;;;-4.60;95.80;;;;;;5038729;28;20055;-80
2024/01/10 04:27:50;;;;;;;11.40;6.65;;;-4.80;95.40;;;;;;5016787;28;20060;-80
2024/01/10 04:30:16;;;;;;;10.55;7.43;;;-4.90;95.40;;;;;;5041884;28;20495;-81
2024/01/10 04:32:42;;;;;;;10.55;6.97;;;-5.10;95.10;;;;;;5038707;28;20029;-79
2024/01/10 04:35:08;;;;;;;9.68;5.50;;;-5.20;95.20;;;;;;5038216;28;20018;-80
2024/01/10 04:37:33;;;;;;;12.70;6.05;;;-5.30;95.60;;;;;;5035305;28;20033;-80
2024/01/10 04:39:59;;;;;;;13.40;7.63;;;-5.30;95.80;;;;;;5034471;28;20014;-80
2024/01/10 04:42:25;;;;;;;11.10;7.20;;;-5.40;95.40;;;;;;5034725;28;20030;-79
2024/01/10 04:44:51;;;;;;;15.80;9.07;;;-5.50;95.40;;;;;;5016850;28;20095;-81
2024/01/10 04:47:18;;;;;;;11.57;7.43;;;-5.60;95.50;;;;;;5034606;28;20041;-81
2024/01/10 04:49:44;;;;;;;12.57;7.00;;;-5.70;95.70;;;;;;5017165;28;20029;-81
2024/01/10 04:52:10;;;;;;;15.27;7.55;;;-5.80;96.10;;;;;;5033645;28;20521;-81
2024/01/10 04:54:36;;;;;;;16.80;7.20;;;-5.80;96.20;;;;;;5034894;28;20467;-81
2024/01/10 04:57:01;;;;;;;13.68;8.85;;;-5.90;96.10;;;;;;5018154;28;20044;-81
2024/01/10 04:59:27;;;;;;;13.35;7.95;;;-5.80;96.00;;;;;;5017116;28;20475;-81
2024/01/10 05:01:53;;;;;;;11.98;8.07;;;-5.90;96.00;;;;;;5037945;28;20109;-83
2024/01/10 05:04:19;;;;;;;8.98;6.57;;;-6.00;95.70;;;;;;5035770;28;20093;-81
2024/01/10 05:06:45;;;;;;;12.82;7.95;;;-6.00;95.30;;;;;;5034818;28;20422;-81
2024/01/10 05:09:11;;;;;;;17.05;7.30;;;-6.20;95.40;;;;;;5027774;28;20043;-80
2024/01/10 05:11:37;;;;;;;13.10;7.53;;;-6.30;95.60;;;;;;5017026;28;20124;-80
2024/01/10 05:14:03;;;;;;;11.25;6.35;;;-6.40;96.00;;;;;;5034302;28;20094;-79
2024/01/10 05:16:29;;;;;;;15.63;8.35;;;-6.40;96.40;;;;;;5034298;28;20099;-80
2024/01/10 05:18:55;;;;;;;10.75;6.70;;;-6.40;96.30;;;;;;5034174;28;20018;-81
2024/01/10 05:21:21;;;;;;;10.07;7.53;;;-6.40;96.00;;;;;;5013653;28;20453;-82
2024/01/10 05:23:47;;;;;;;10.15;6.47;;;-6.50;96.00;;;;;;5035896;28;20025;-82
2024/01/10 05:26:14;;;;;;;9.93;6.63;;;-6.60;96.00;;;;;;5038319;28;20025;-81
2024/01/10 05:28:40;;;;;;;10.82;8.38;;;-6.60;95.90;;;;;;5030009;28;20137;-81
2024/01/10 05:31:06;;;;;;;11.68;9.68;;;-6.70;95.70;;;;;;5023327;28;20120;-81
2024/01/10 05:33:32;;;;;;;14.88;9.57;;;-6.80;96.00;;;;;;5034763;28;20029;-81
2024/01/10 05:35:58;;;;;;;9.52;5.50;;;-6.80;96.10;;;;;;5040461;28;20040;-83
2024/01/10 05:38:24;;;;;;;11.52;8.00;;;-6.90;96.40;;;;;;5038765;28;20126;-82
2024/01/10 05:40:51;;;;;;;9.85;6.45;;;-6.90;96.30;;;;;;5036704;28;20079;-80
2024/01/10 05:43:17;;;;;;;;;;;-6.90;95.60;;;;;;5034013;28;20178;-79
2024/01/10 05:45:43;;;;;;;4.43;2.83;;;-7.00;95.80;;;;;;5031666;28;19909;-80
2024/01/10 05:48:09;;;;;;;11.45;8.73;;;-7.10;96.10;;;;;;5033458;28;20377;-82
2024/01/10 05:50:34;;;;;;;7.95;5.28;;;-7.00;96.30;;;;;;5031496;28;20517;-80
2024/01/10 05:53:00;;;;;;;13.57;6.38;;;-7.10;96.40;;;;;;5031178;28;20549;-80
2024/01/10 05:55:26;;;;;;;10.93;5.43;;;-7.10;96.50;;;;;;5033390;28;20033;-81
2024/01/10 05:57:52;;;;;;;12.75;6.22;;;-7.10;96.70;;;;;;5033434;28;20029;-83
2024/01/10 06:00:20;;;;;;;10.85;6.10;;;-7.00;96.60;;;;;;5031699;28;20028;-83
2024/01/10 06:02:46;;;;;;;8.95;5.85;;;-7.00;96.60;;;;;;5033054;28;20145;-85
2024/01/10 06:05:12;;;;;;;12.73;6.53;;;-6.90;96.50;;;;;;5015180;28;20112;-83
2024/01/10 06:07:41;;;;;;;9.30;5.28;;;-6.90;96.10;;;;;;5034716;28;20013;-83
2024/01/10 06:10:07;;;;;;;7.35;5.78;;;-7.00;95.90;;;;;;5033304;28;20057;-81
2024/01/10 06:12:33;;;;;;;7.72;4.78;;;-7.00;95.80;;;;;;5032617;28;20474;-82
2024/01/10 06:14:59;;;;;;;14.45;7.57;;;-7.00;96.00;;;;;;5015537;28;20097;-83
2024/01/10 06:17:25;;;;;;;8.70;5.68;;;-7.00;95.60;;;;;;5033520;28;20029;-82
2024/01/10 06:19:51;;;;;;;7.65;5.07;;;-7.00;95.50;;;;;;5035921;28;20017;-81
2024/01/10 06:22:17;;;;;;;15.60;10.32;;;-7.00;95.60;;;;;;5032626;28;20515;-82
2024/01/10 06:24:44;;;;;;;10.20;7.45;;;-7.00;95.30;;;;;;5032892;28;20445;-82
2024/01/10 06:27:10;;;;;;;10.10;6.33;;;-7.10;95.20;;;;;;5015221;28;20112;-83
2024/01/10 06:29:36;;;;;;;9.38;7.05;;;-7.20;95.00;;;;;;5032606;28;20331;-82
2024/01/10 06:32:13;;;;;;;12.00;7.25;;;-7.30;95.10;;;;;;5016993;28;20029;-82
2024/01/10 06:34:40;;;;;;;11.98;6.82;;;-7.30;95.40;;;;;;5015726;28;20040;-82
2024/01/10 06:37:21;;;;;;;;;;;;;;;;;;;;;
2024/01/10 06:39:47;;;;;;;10.15;7.25;;;-7.30;95.60;;;;;;5032866;28;20494;-83
2024/01/10 06:42:13;;;;;;;9.52;6.28;;;-7.30;95.20;;;;;;5033230;28;20125;-82
2024/01/10 06:44:39;;;;;;;9.73;6.20;;;-7.30;95.30;;;;;;5033243;28;20018;-81
2024/01/10 06:47:05;;;;;;;10.25;6.22;;;-7.30;95.60;;;;;;5034133;28;20044;-82
2024/01/10 06:49:31;;;;;;;14.93;7.97;;;-7.30;95.80;;;;;;5032772;28;20084;-82
2024/01/10 06:51:57;;;;;;;15.02;6.10;;;-7.20;96.00;;;;;;5029062;28;20128;-82
2024/01/10 06:54:23;;;;;;;10.70;6.47;;;-7.20;95.90;;;;;;5032644;28;20013;-83
2024/01/10 06:56:49;;;;;;;7.03;5.25;;;-7.20;95.90;;;;;;5032520;28;20026;-82
2024/01/10 06:59:14;;;;;;;12.00;6.70;;;-7.10;96.00;;;;;;5032390;28;20097;-83
2024/01/10 07:01:40;;;;;;;7.75;5.57;;;-7.10;95.80;;;;;;5045318;28;20029;-82
2024/01/10 07:04:06;;;;;;;7.97;5.88;;;-7.10;95.80;;;;;;5015453;28;20022;-82
2024/01/10 07:06:32;;;;;;;10.38;5.53;;;-7.00;95.70;;;;;;5014646;28;20044;-83
2024/01/10 07:08:58;;;;;;;9.85;6.13;;;-7.00;95.40;;;;;;5032780;28;20532;-83
2024/01/10 07:11:26;;;;;;;10.88;6.78;;;-7.00;95.10;;;;;;5034313;28;20475;-82
2024/01/10 07:13:52;;;;;;;10.85;7.25;;;-7.00;95.10;;;;;;5049898;28;20056;-81
2024/01/10 07:16:18;;;;;;;10.23;5.95;;;-7.00;95.30;;;;;;5047236;28;20013;-82
2024/01/10 07:18:46;;;;;;;11.95;6.88;;;-6.90;95.40;;;;;;5036580;28;20076;-82
2024/01/10 07:21:12;;;;;;;9.65;6.10;;;-6.90;95.40;;;;;;5039146;28;20026;-82
2024/01/10 07:23:40;;;;;;;11.35;5.32;;;-6.90;95.30;;;;;;5033359;28;20017;-82
2024/01/10 07:26:06;;;;;;;9.50;5.93;;;-6.80;95.30;;;;;;5036429;28;20028;-82
2024/01/10 07:28:32;;;;;;;11.18;8.40;;;-6.90;94.50;;;;;;5042547;28;20323;-82
2024/01/10 07:30:58;;;;;;;8.38;5.80;;;-6.90;94.30;;;;;;5032229;28;20109;-82
2024/01/10 07:33:24;;;;;;;8.88;5.45;;;-7.00;94.20;;;;;;5032175;28;20037;-82
2024/01/10 07:35:52;;;;;;;11.32;6.78;;;-7.00;94.10;;;;;;5032283;28;20017;-82
2024/01/10 07:38:20;;;;;;;13.55;5.15;;;-7.10;94.50;;;;;;5035194;28;20100;-81
2024/01/10 07:40:47;;;;;;;8.68;5.90;;;-7.10;93.90;;;;;;5035605;28;20049;-80
2024/01/10 07:43:13;;;;;;;12.77;6.25;;;-7.10;94.20;;;;;;5014961;28;20558;-82
2024/01/10 07:45:39;;;;;;;11.65;6.20;;;-7.10;94.20;;;;;;5034656;28;20104;-83
2024/01/10 07:48:05;;;;;;;13.48;7.43;;;-7.10;94.20;;;;;;5016669;28;20113;-82
2024/01/10 07:50:31;;;;;;;11.82;7.35;;;-7.10;94.00;;;;;;5035529;28;20521;-83
2024/01/10 07:52:56;;;;;;;9.80;7.07;;;-7.10;94.00;;;;;;5035949;28;20037;-82
2024/01/10 07:55:22;;;;;;;12.52;8.85;;;-7.10;94.30;;;;;;5036057;28;20053;-83
2024/01/10 07:57:48;;;;;;;14.07;7.97;;;-7.10;94.50;;;;;;5036746;28;20029;-84
2024/01/10 08:00:15;;;;;;;10.88;7.20;;;-7.00;94.50;;;;;;5050162;28;20082;-84
2024/01/10 08:02:41;;;;;;;4.60;3.67;;;-7.00;94.20;;;;;;5035731;28;20486;-83
2024/01/10 08:05:10;;;;;;;9.10;4.85;;;-7.00;94.20;;;;;;5035431;28;20263;-81
2024/01/10 08:07:38;;;;;;;11.48;6.85;;;-6.90;94.20;;;;;;5035581;28;20501;-83
2024/01/10 08:10:09;;;;;;;9.82;5.65;;;-7.00;93.90;;;;;;5036322;28;20036;-81
2024/01/10 08:12:36;;;;;;;11.25;5.20;;;-6.90;94.00;;;;;;5035755;28;20059;-83
2024/01/10 08:15:02;;;;;;;10.68;7.88;;;-6.90;94.40;;;;;;5036500;28;20112;-83
2024/01/10 08:17:27;;;;;;;12.65;7.50;;;-6.90;93.80;;;;;;5035613;28;20494;-82
2024/01/10 08:19:53;;;;;;;14.00;7.15;;;-6.80;94.00;;;;;;5035659;28;20382;-83
2024/01/10 08:22:20;;;;;;;10.02;6.60;;;-6.80;94.30;;;;;;5036471;28;20038;-82
2024/01/10 08:24:46;;;;;;;14.45;7.57;;;-6.70;93.70;;;;;;5035422;28;20025;-83
2024/01/10 08:27:12;;;;;;;13.02;6.00;;;-6.80;92.90;;;;;;5035576;28;20164;-84
2024/01/10 08:29:38;;;;;;;12.60;7.87;;;-6.80;92.90;;;;;;5036616;28;20032;-83
2024/01/10 08:32:05;;;;;;;4.45;3.28;;;-7.00;92.80;;;;;;5018152;28;20033;-83
2024/01/10 08:34:31;;;;;;;10.65;8.32;;;-7.10;93.10;;;;;;5039331;28;20482;-83
2024/01/10 08:36:57;;;;;;;10.07;7.17;;;-7.10;93.40;;;;;;5027722;28;20033;-83
2024/01/10 08:39:25;;;;;;;9.10;6.35;;;-7.20;93.30;;;;;;5035124;28;20120;-83
2024/01/10 08:41:52;;;;;;;9.13;5.68;;;-7.30;93.40;;;;;;5016791;28;20573;-83
2024/01/10 08:44:19;;;;;;;8.35;5.40;;;-7.30;94.00;;;;;;5049427;28;20119;-83
2024/01/10 08:46:47;;;;;;;10.20;6.35;;;-7.20;93.90;;;;;;5023801;28;20033;-82
2024/01/10 08:49:12;;;;;;;9.52;7.30;;;-7.20;93.50;;;;;;5040281;28;20029;-80
2024/01/10 08:51:40;;;;;;;15.07;7.25;;;-7.10;94.10;;;;;;5035036;28;20056;-83
2024/01/10 08:54:06;;;;;;;12.13;6.68;;;-7.00;93.70;;;;;;5018869;28;20017;-84
2024/01/10 08:56:32;;;;;;;10.38;5.80;;;-6.90;93.20;;;;;;5035114;28;20033;-83
2024/01/10 08:58:58;;;;;;;14.80;8.15;;;-6.90;93.60;;;;;;5034628;28;20044;-82
2024/01/10 09:01:27;;;;;;;15.55;7.28;;;-6.80;93.30;;;;;;5034268;28;20460;-84
2024/01/10 09:03:53;;;;;;;11.20;6.32;;;-6.70;93.60;;;;;;5035087;28;20021;-84
2024/01/10 09:06:20;;;;;;;9.98;6.53;;;-6.50;93.60;;;;;;5041524;28;20179;-83
2024/01/10 09:08:46;;;;;;;;;;;-6.30;93.70;;;;;;5022471;28;20021;-83
2024/01/10 09:11:12;;;;;;;10.10;5.97;;;-6.00;94.00;;;;;;5037043;28;19909;-83
2024/01/10 09:13:40;;;;;;;10.43;6.70;;;-5.70;93.80;;;;;;5034980;28;20026;-82
2024/01/10 09:16:06;;;;;;;8.48;5.43;;;-5.50;91.70;;;;;;5017190;28;20024;-82
2024/01/10 09:18:32;;;;;;;8.35;5.20;;;-5.30;92.30;;;;;;5017166;28;20030;-83
2024/01/10 09:20:57;;;;;;;9.60;4.93;;;-5.30;91.80;;;;;;5048061;28;20480;-84
2024/01/10 09:23:23;;;;;;;13.02;8.95;;;-5.30;91.30;;;;;;5016624;28;20065;-82
2024/01/10 09:25:49;;;;;;;13.30;7.38;;;-5.40;90.20;;;;;;5033888;28;20533;-83
2024/01/10 09:28:15;;;;;;;9.38;6.55;;;-5.50;90.50;;;;;;5035191;28;20466;-84
2024/01/10 09:30:41;;;;;;;8.85;6.03;;;-5.60;91.20;;;;;;5016454;28;20390;-81
2024/01/10 09:33:07;;;;;;;21.17;6.55;;;-5.60;91.30;;;;;;5034298;28;20109;-82
2024/01/10 09:35:33;;;;;;;11.23;7.50;;;-5.60;90.50;;;;;;5034598;28;20101;-81
2024/01/10 09:38:02;;;;;;;14.13;7.45;;;-5.70;90.60;;;;;;5034398;28;20009;-82
2024/01/10 09:40:29;;;;;;;12.27;6.97;;;-5.80;90.70;;;;;;5034633;28;20034;-83
2024/01/10 09:42:55;;;;;;;11.35;8.07;;;-5.90;90.70;;;;;;5033857;28;20114;-83
2024/01/10 09:45:23;;;;;;;17.38;8.35;;;-6.00;90.40;;;;;;5032202;28;20021;-83
2024/01/10 09:47:54;;;;;;;13.63;8.00;;;-6.00;90.40;;;;;;5024902;28;20021;-83
2024/01/10 09:50:19;;;;;;;15.50;8.55;;;-6.10;90.60;;;;;;5034055;28;20455;-83
2024/01/10 09:53:05;;;;;;;18.02;8.32;;;-6.10;91.10;;;;;;5036067;28;20060;-82
2024/01/10 09:55:36;;;;;;;11.38;7.65;;;-6.10;91.50;;;;;;5038676;28;20022;-83
2024/01/10 09:58:08;;;;;;;11.45;7.10;;;-6.10;91.20;;;;;;5016560;28;20490;-85
2024/01/10 10:00:36;;;;;;;15.00;7.90;;;-6.10;91.10;;;;;;5033390;28;20030;-81
2024/01/10 10:03:04;;;;;;;12.10;7.47;;;-6.10;91.20;;;;;;5033830;28;20113;-82
2024/01/10 10:05:30;;;;;;;10.85;6.97;;;-6.10;91.00;;;;;;5033870;28;20108;-81
2024/01/10 10:07:57;;;;;;;10.68;6.57;;;-6.20;91.20;;;;;;5016944;28;20021;-82
2024/01/10 10:10:23;;;;;;;;;;;-6.30;91.20;;;;;;5017907;28;20021;-83
2024/01/10 10:12:52;;;;;;;12.32;6.38;;;-6.30;91.20;;;;;;5037811;28;19905;-83
2024/01/10 10:15:23;;;;;;;10.90;6.32;;;-6.40;91.10;;;;;;5034240;28;20038;-82
2024/01/10 10:17:50;;;;;;;9.50;6.05;;;-6.50;91.30;;;;;;5016489;28;20076;-82
2024/01/10 10:20:27;;;;;;;11.70;6.90;;;-6.50;91.40;;;;;;5015969;28;20026;-84
2024/01/10 10:23:06;;;;;;;9.60;5.93;;;-6.50;91.60;;;;;;5033800;28;20033;-82
2024/01/10 10:25:37;;;;;;;7.78;5.50;;;-6.60;91.10;;;;;;5033570;28;20147;-82
2024/01/10 10:28:04;;;;;;;10.32;5.32;;;-6.60;91.40;;;;;;5015440;28;20025;-82
2024/01/10 10:30:35;;;;;;;10.80;5.95;;;-6.70;91.20;;;;;;5033274;28;20083;-83
2024/01/10 10:33:09;;;;;;;10.68;6.00;;;-6.70;91.40;;;;;;5033188;28;20028;-83
2024/01/10 10:35:35;;;;;;;15.00;6.15;;;-6.80;91.50;;;;;;5035015;28;20383;-82
2024/01/10 10:38:01;;;;;;;10.65;6.22;;;-6.90;91.50;;;;;;5017629;28;20022;-84
2024/01/10 10:40:27;;;;;;;9.57;6.43;;;-6.90;91.60;;;;;;5034098;28;20108;-82
2024/01/10 10:42:57;;;;;;;8.88;5.75;;;-6.90;91.80;;;;;;5038425;28;20491;-83
2024/01/10 10:45:26;;;;;;;9.93;5.55;;;-6.90;91.80;;;;;;5033336;28;20467;-84
2024/01/10 10:48:00;;;;;;;11.73;6.80;;;-7.00;91.70;;;;;;5015579;28;20029;-83
2024/01/10 10:50:32;;;;;;;9.85;6.22;;;-7.10;91.60;;;;;;5036793;28;20021;-83
2024/01/10 10:53:00;;;;;;;8.23;6.20;;;-7.10;91.80;;;;;;5039185;28;20101;-82
2024/01/10 10:55:27;;;;;;;9.75;6.97;;;-7.10;92.10;;;;;;5032460;28;20017;-83
2024/01/10 10:57:55;;;;;;;17.45;6.72;;;-7.10;92.40;;;;;;5032362;28;20036;-83
2024/01/10 11:00:26;;;;;;;10.68;6.28;;;-7.10;92.60;;;;;;5032617;28;20032;-83
2024/01/10 11:02:54;;;;;;;8.38;5.47;;;-7.10;92.80;;;;;;5041513;28;20397;-83
2024/01/10 11:05:21;;;;;;;11.70;5.93;;;-7.10;92.60;;;;;;5038953;28;20037;-84
2024/01/10 11:07:48;;;;;;;11.35;6.70;;;-7.10;92.60;;;;;;4998790;28;20029;-83
2024/01/10 11:10:36;;;;;;;11.60;4.38;;;-7.10;92.70;;;;;;5033276;28;20112;-81
2024/01/10 11:13:18;;;;;;;13.70;8.30;;;-7.10;92.40;;;;;;5026367;28;20030;-81
2024/01/10 11:16:35;;;;;;;12.15;7.60;;;-7.20;92.30;;;;;;5032239;28;20026;-83
2024/01/10 11:19:12;;;;;;;9.73;6.70;;;-7.30;92.40;;;;;;4971161;28;20027;-82
2024/01/10 11:22:15;;;;;;;14.18;7.80;;;-7.30;92.50;;;;;;4971621;28;20042;-83
2024/01/10 11:24:41;;;;;;;9.35;6.90;;;-7.30;92.80;;;;;;4971535;28;20112;-83
2024/01/10 11:27:15;;;;;;;12.82;6.90;;;-7.30;93.00;;;;;;4972258;28;20050;-82
2024/01/10 11:29:42;;;;;;;14.70;7.53;;;-7.30;93.00;;;;;;4974313;28;20026;-82
2024/01/10 11:32:22;;;;;;;11.68;9.20;;;-7.30;93.10;;;;;;4971826;28;20038;-82
2024/01/10 11:34:58;;;;;;;15.20;7.78;;;-7.30;93.20;;;;;;4971638;28;20460;-84
2024/01/10 11:37:39;;;;;;;10.57;7.93;;;-7.30;93.20;;;;;;4971733;28;20058;-81
2024/01/10 11:40:09;;;;;;;9.63;6.15;;;-7.30;93.30;;;;;;4971800;28;20038;-80
2024/01/10 11:42:48;;;;;;;10.25;7.90;;;-7.30;93.30;;;;;;4971718;28;20035;-82
2024/01/10 11:45:33;;;;;;;15.98;7.45;;;-7.30;93.30;;;;;;4959497;28;20023;-83
2024/01/10 11:48:00;;;;;;;9.73;7.15;;;-7.30;93.40;;;;;;4954855;28;20027;-82
2024/01/10 11:50:27;;;;;;;12.88;7.70;;;-7.30;93.30;;;;;;4971224;28;20089;-84
2024/01/10 11:52:53;;;;;;;13.77;7.63;;;-7.40;93.40;;;;;;4984255;28;20094;-85
2024/01/10 11:55:48;;;;;;;12.07;7.00;;;-7.40;93.70;;;;;;5028207;28;20042;-84
2024/01/10 11:58:14;;;;;;;9.77;6.68;;;-7.40;93.80;;;;;;5032491;28;20341;-82
2024/01/10 12:00:41;;;;;;;14.40;8.77;;;-7.40;93.90;;;;;;5014404;28;20501;-81
2024/01/10 12:03:08;;;;;;;13.48;7.00;;;-7.40;93.70;;;;;;5031998;28;20036;-85
2024/01/10 12:05:38;;;;;;;11.88;7.80;;;-7.40;93.80;;;;;;5032017;28;20037;-81
2024/01/10 12:08:08;;;;;;;13.27;7.07;;;-7.40;94.00;;;;;;5020234;28;20037;-82
2024/01/10 12:10:36;;;;;;;13.30;8.05;;;-7.30;94.30;;;;;;5032837;28;20033;-83
2024/01/10 12:13:05;;;;;;;9.75;6.63;;;-7.20;94.30;;;;;;5039041;28;20021;-84
2024/01/10 12:15:31;;;;;;;10.77;7.10;;;-7.20;94.60;;;;;;5014603;28;20105;-82
2024/01/10 12:17:57;;;;;;;10.35;5.07;;;-7.20;94.80;;;;;;5031857;28;20036;-83
2024/01/10 12:20:23;;;;;;;11.73;6.85;;;-7.10;95.10;;;;;;5044856;28;20025;-81
2024/01/10 12:22:48;;;;;;;11.20;7.18;;;-7.10;94.90;;;;;;5014441;28;20513;-84
2024/01/10 12:25:14;;;;;;;8.40;4.93;;;-7.10;94.70;;;;;;5013810;28;20021;-82
2024/01/10 12:27:40;;;;;;;10.63;8.27;;;-7.10;94.60;;;;;;5031393;28;20064;-83
2024/01/10 12:30:07;;;;;;;11.13;5.00;;;-7.00;94.40;;;;;;5031133;28;20026;-82
2024/01/10 12:32:33;;;;;;;9.25;5.88;;;-7.00;94.30;;;;;;5035470;28;20242;-82
2024/01/10 12:35:03;;;;;;;15.15;5.95;;;-7.10;94.10;;;;;;5045923;28;20064;-84
2024/01/10 12:37:30;;;;;;;11.70;6.65;;;-7.10;94.10;;;;;;5027345;28;20017;-83
2024/01/10 12:39:57;;;;;;;13.60;7.17;;;-7.10;94.20;;;;;;5035936;28;20093;-83
2024/01/10 12:42:23;;;;;;;10.05;7.00;;;-7.10;94.20;;;;;;5024204;28;20050;-82
2024/01/10 12:44:49;;;;;;;9.90;6.15;;;-7.10;94.10;;;;;;5033311;28;20026;-81